createdAt,value
2017-11-20T00:01:52.889Z,1.50
2017-11-20T00:04:21.034Z,1.30
2017-11-20T00:06:49.204Z,1.00
2017-11-20T00:09:17.422Z,1.27
2017-11-20T00:11:45.661Z,0.90
2017-11-20T00:14:13.846Z,1.20
2017-11-20T00:16:43.938Z,1.30
2017-11-20T00:19:12.068Z,0.83
2017-11-20T00:21:41.039Z,1.37
2017-11-20T00:24:14.311Z,1.23
2017-11-20T00:26:42.425Z,0.90
2017-11-20T00:29:10.589Z,1.20
2017-11-20T00:31:38.923Z,1.30
2017-11-20T00:34:17.860Z,0.90
2017-11-20T00:36:46.022Z,1.37
2017-11-20T00:39:14.180Z,1.13
2017-11-20T00:41:42.331Z,1.10
2017-11-20T00:44:11.228Z,1.27
2017-11-20T00:46:40.333Z,1.13
2017-11-20T00:49:08.484Z,1.60
2017-11-20T00:51:36.665Z,1.23
2017-11-20T00:54:04.811Z,1.10
2017-11-20T00:56:40.039Z,1.40
2017-11-20T00:59:08.954Z,1.60
2017-11-20T01:01:37.078Z,2.40
2017-11-20T01:04:05.221Z,1.20
2017-11-20T01:06:33.344Z,2.20
2017-11-20T01:09:07.366Z,1.57
2017-11-20T01:11:39.517Z,1.20
2017-11-20T01:14:07.667Z,1.07
2017-11-20T01:16:36.778Z,1.20
2017-11-20T01:19:11.597Z,1.43
2017-11-20T01:21:39.756Z,2.00
2017-11-20T01:24:08.047Z,1.80
2017-11-20T01:26:38.378Z,1.43
2017-11-20T01:29:07.655Z,1.50
2017-11-20T01:31:38.766Z,1.60
2017-11-20T01:34:06.917Z,1.70
2017-11-20T01:36:35.363Z,2.00
2017-11-20T01:39:07.173Z,2.30
2017-11-20T01:41:35.361Z,1.50
2017-11-20T01:44:07.408Z,1.90
2017-11-20T01:46:35.715Z,1.33
2017-11-20T01:49:03.865Z,1.60
2017-11-20T01:51:32.949Z,1.30
2017-11-20T01:54:02.173Z,1.40
2017-11-20T01:56:33.587Z,1.30
2017-11-20T01:59:01.979Z,1.53
2017-11-20T02:01:33.581Z,1.30
2017-11-20T02:04:01.806Z,1.90
2017-11-20T02:06:30.920Z,1.63
2017-11-20T02:08:59.851Z,2.20
2017-11-20T02:11:28.202Z,1.50
2017-11-20T02:13:56.360Z,1.63
2017-11-20T02:16:25.566Z,2.03
2017-11-20T02:18:54.689Z,1.77
2017-11-20T02:21:23.152Z,1.77
2017-11-20T02:24:01.980Z,1.93
2017-11-20T02:26:30.117Z,1.70
2017-11-20T02:28:58.278Z,1.97
2017-11-20T02:31:26.417Z,2.30
2017-11-20T02:33:55.108Z,2.37
2017-11-20T02:36:24.281Z,2.80
2017-11-20T02:38:52.427Z,2.30
2017-11-20T02:41:20.578Z,2.00
2017-11-20T02:43:49.883Z,2.10
2017-11-20T02:46:18.043Z,2.10
2017-11-20T02:48:46.521Z,2.80
2017-11-20T02:51:14.709Z,2.20
2017-11-20T02:53:49.763Z,2.20
2017-11-20T02:56:18.028Z,2.00
2017-11-20T02:58:46.163Z,2.63
2017-11-20T03:01:15.352Z,2.47
2017-11-20T03:03:45.438Z,2.13
2017-11-20T03:06:25.355Z,2.10
2017-11-20T03:08:53.645Z,2.30
2017-11-20T03:11:21.883Z,1.73
2017-11-20T03:13:50.053Z,1.97
2017-11-20T03:16:18.476Z,2.43
2017-11-20T03:18:46.827Z,2.50
2017-11-20T03:21:15.929Z,2.37
2017-11-20T03:23:44.917Z,2.47
2017-11-20T03:26:13.360Z,2.10
2017-11-20T03:28:42.587Z,1.83
2017-11-20T03:31:10.764Z,2.40
2017-11-20T03:33:38.895Z,2.47
2017-11-20T03:36:07.830Z,2.67
2017-11-20T03:38:36.317Z,2.13
2017-11-20T03:41:04.454Z,2.40
2017-11-20T03:43:32.668Z,2.60
2017-11-20T03:46:01.008Z,3.97
2017-11-20T03:48:29.131Z,3.57
2017-11-20T03:50:57.247Z,3.00
2017-11-20T03:53:26.035Z,2.50
2017-11-20T03:55:54.159Z,3.60
2017-11-20T03:58:22.550Z,2.87
2017-11-20T04:00:50.692Z,2.87
2017-11-20T04:03:18.823Z,2.73
2017-11-20T04:05:47.003Z,2.80
2017-11-20T04:08:15.183Z,2.33
2017-11-20T04:10:44.399Z,3.67
2017-11-20T04:13:12.622Z,2.30
2017-11-20T04:15:40.877Z,2.10
2017-11-20T04:18:09.041Z,2.23
2017-11-20T04:20:37.398Z,2.47
2017-11-20T04:23:05.720Z,2.57
2017-11-20T04:25:34.884Z,3.00
2017-11-20T04:28:03.248Z,2.80
2017-11-20T04:30:31.420Z,2.23
2017-11-20T04:33:01.573Z,2.97
2017-11-20T04:35:30.059Z,2.80
2017-11-20T04:37:58.254Z,2.90
2017-11-20T04:40:26.451Z,2.57
2017-11-20T04:42:54.615Z,3.57
2017-11-20T04:45:22.818Z,2.40
2017-11-20T04:47:51.996Z,2.60
2017-11-20T05:47:11.644Z,2.40
2017-11-20T05:49:40.875Z,2.47
2017-11-20T05:52:09.092Z,2.23
2017-11-20T05:54:37.202Z,2.50
2017-11-20T05:57:08.583Z,2.37
2017-11-20T05:59:37.082Z,2.23
2017-11-20T06:02:05.246Z,2.30
2017-11-20T06:04:33.376Z,2.50
2017-11-20T06:07:02.471Z,2.30
2017-11-20T06:09:30.842Z,2.10
2017-11-20T06:11:58.974Z,2.00
2017-11-20T06:14:27.176Z,2.63
2017-11-20T06:16:55.480Z,2.20
2017-11-20T06:19:24.430Z,3.10
2017-11-20T06:21:52.613Z,2.40
2017-11-20T06:24:20.963Z,4.87
2017-11-20T06:26:50.055Z,2.83
2017-11-20T06:29:18.218Z,3.00
2017-11-20T06:31:46.386Z,2.93
2017-11-20T06:34:18.185Z,2.67
2017-11-20T06:36:48.338Z,2.60
2017-11-20T06:39:17.383Z,2.00
2017-11-20T06:44:55.995Z,1.90
2017-11-20T06:47:24.190Z,2.53
2017-11-20T06:49:52.451Z,1.83
2017-11-20T06:52:26.130Z,1.90
2017-11-20T06:54:54.303Z,2.70
2017-11-20T06:57:23.408Z,2.37
2017-11-20T06:59:51.579Z,3.47
2017-11-20T07:02:24.025Z,1.80
2017-11-20T07:08:02.335Z,2.20
2017-11-20T07:10:31.296Z,2.00
2017-11-20T07:12:59.784Z,2.60
2017-11-20T07:15:28.098Z,2.30
2017-11-20T07:17:56.335Z,2.00
2017-11-20T07:20:26.840Z,3.37
2017-11-20T07:22:57.584Z,2.20
2017-11-20T07:25:37.705Z,2.20
2017-11-20T07:28:08.255Z,2.47
2017-11-20T07:30:48.157Z,3.00
2017-11-20T07:33:19.988Z,2.20
2017-11-20T07:36:00.189Z,2.40
2017-11-20T07:38:40.171Z,2.17
2017-11-20T07:41:08.439Z,2.63
2017-11-20T07:43:37.570Z,2.57
2017-11-20T07:46:05.800Z,2.80
2017-11-20T07:48:34.283Z,2.20
2017-11-20T07:51:17.080Z,2.27
2017-11-20T07:53:45.534Z,2.47
2017-11-20T07:56:13.788Z,2.00
2017-11-20T07:58:42.133Z,3.03
2017-11-20T08:01:12.309Z,2.70
2017-11-20T08:03:44.533Z,2.90
2017-11-20T08:06:15.654Z,2.83
2017-11-20T08:08:43.956Z,2.63
2017-11-20T08:11:13.055Z,2.60
2017-11-20T08:13:46.902Z,2.50
2017-11-20T08:16:19.905Z,3.00
2017-11-20T08:18:48.108Z,3.30
2017-11-20T08:27:06.032Z,2.77
2017-11-20T08:29:38.086Z,2.93
2017-11-20T08:32:06.251Z,3.20
2017-11-20T08:34:38.315Z,2.90
2017-11-20T08:40:16.063Z,2.33
2017-11-20T08:42:45.355Z,2.90
2017-11-20T08:45:13.547Z,3.00
2017-11-20T08:47:41.815Z,2.83
2017-11-20T08:50:10.924Z,3.53
2017-11-20T08:52:39.971Z,2.37
2017-11-20T08:55:08.737Z,2.60
2017-11-20T08:57:38.892Z,3.03
2017-11-20T09:02:44.392Z,2.50
2017-11-20T09:05:14.477Z,2.63
2017-11-20T09:07:42.691Z,2.77
2017-11-20T09:10:11.993Z,2.70
2017-11-20T09:12:45.293Z,2.60
2017-11-20T09:17:49.427Z,3.07
2017-11-20T09:20:18.263Z,4.87
2017-11-20T09:22:47.343Z,3.20
2017-11-20T09:25:15.559Z,4.07
2017-11-20T09:27:44.582Z,3.40
2017-11-20T09:30:12.871Z,2.90
2017-11-20T09:32:42.927Z,3.47
2017-11-20T09:35:11.116Z,2.77
2017-11-20T09:37:49.760Z,3.77
2017-11-20T09:40:18.055Z,3.47
2017-11-20T09:45:59.675Z,3.13
2017-11-20T09:48:28.527Z,3.17
2017-11-20T09:50:57.631Z,3.70
2017-11-20T09:53:26.769Z,3.23
2017-11-20T09:55:54.997Z,2.90
2017-11-20T09:58:23.281Z,3.63
2017-11-20T10:00:51.440Z,3.43
2017-11-20T10:03:20.503Z,4.47
2017-11-20T10:05:48.794Z,3.50
2017-11-20T10:08:17.867Z,3.50
2017-11-20T10:10:48.088Z,3.47
2017-11-20T10:13:17.297Z,3.40
2017-11-20T10:15:45.557Z,3.40
2017-11-20T10:18:13.698Z,3.30
2017-11-20T10:20:42.051Z,3.77
2017-11-20T10:23:10.299Z,3.10
2017-11-20T10:25:40.448Z,3.20
2017-11-20T10:28:08.615Z,3.87
2017-11-20T10:30:36.788Z,4.27
2017-11-20T10:33:05.076Z,3.80
2017-11-20T10:35:33.343Z,4.10
2017-11-20T10:38:01.735Z,4.80
2017-11-20T10:40:29.952Z,4.43
2017-11-20T10:42:58.146Z,4.10
2017-11-20T10:45:44.426Z,3.40
2017-11-20T10:48:12.675Z,3.60
2017-11-20T10:50:40.904Z,3.30
2017-11-20T10:53:09.172Z,3.53
2017-11-20T10:55:42.424Z,3.53
2017-11-20T10:58:10.684Z,2.53
2017-11-20T11:00:44.218Z,3.77
2017-11-20T11:03:12.349Z,3.20
2017-11-20T11:05:40.710Z,4.00
2017-11-20T11:08:10.878Z,3.83
2017-11-20T11:10:39.148Z,3.07
2017-11-20T11:13:07.541Z,3.70
2017-11-20T11:15:35.772Z,4.73
2017-11-20T11:18:03.965Z,3.93
2017-11-20T11:20:37.272Z,5.70
2017-11-20T11:23:05.405Z,4.73
2017-11-20T11:25:36.888Z,4.50
2017-11-20T11:28:05.595Z,4.97
2017-11-20T11:30:33.867Z,4.20
2017-11-20T11:33:03.265Z,3.83
2017-11-20T11:35:32.099Z,5.17
2017-11-20T11:38:00.261Z,4.40
2017-11-20T11:40:28.839Z,3.90
2017-11-20T11:42:57.261Z,3.90
2017-11-20T11:45:35.045Z,4.17
2017-11-20T11:48:04.026Z,2.97
2017-11-20T11:50:32.958Z,4.20
2017-11-20T11:53:01.222Z,3.83
2017-11-20T11:58:39.056Z,4.00
2017-11-20T12:01:24.032Z,3.67
2017-11-20T12:03:57.898Z,3.00
2017-11-20T12:06:27.077Z,3.70
2017-11-20T12:08:56.257Z,3.63
2017-11-20T12:11:24.538Z,3.77
2017-11-20T12:17:03.309Z,3.27
2017-11-20T12:19:32.316Z,3.57
2017-11-20T12:25:11.348Z,3.07
2017-11-20T12:27:39.625Z,3.40
2017-11-20T12:30:07.839Z,3.10
2017-11-20T12:32:40.099Z,3.57
2017-11-20T12:35:24.125Z,3.37
2017-11-20T12:41:17.557Z,3.10
2017-11-20T12:43:53.423Z,3.00
2017-11-20T12:46:21.692Z,2.80
2017-11-20T12:48:50.548Z,2.30
2017-11-20T12:51:18.783Z,2.23
2017-11-20T12:53:54.908Z,3.37
2017-11-20T12:56:23.136Z,1.60
2017-11-20T12:58:51.737Z,1.73
2017-11-20T13:01:23.665Z,1.50
2017-11-20T13:03:52.770Z,2.07
2017-11-20T13:06:20.969Z,1.73
2017-11-20T13:08:49.072Z,2.53
2017-11-20T13:11:40.616Z,2.00
2017-11-20T13:14:08.777Z,2.30
2017-11-20T13:16:37.048Z,2.27
2017-11-20T13:19:08.110Z,2.90
2017-11-20T13:21:36.300Z,2.00
2017-11-20T13:24:05.121Z,2.27
2017-11-20T13:26:33.375Z,2.00
2017-11-20T13:29:07.975Z,3.00
2017-11-20T13:31:36.619Z,2.00
2017-11-20T13:34:04.813Z,1.93
2017-11-20T13:36:33.042Z,2.80
2017-11-20T13:39:05.581Z,2.10
2017-11-20T13:41:34.047Z,2.07
2017-11-20T13:44:02.228Z,2.63
2017-11-20T13:46:30.647Z,2.30
2017-11-20T13:48:58.821Z,1.97
2017-11-20T13:51:27.051Z,2.00
2017-11-20T13:53:58.188Z,2.17
2017-11-20T13:56:26.600Z,1.90
2017-11-20T13:58:54.823Z,2.00
2017-11-20T14:01:23.055Z,1.90
2017-11-20T14:07:25.361Z,2.60
2017-11-20T14:09:54.578Z,3.07
2017-11-20T14:15:35.652Z,1.80
2017-11-20T14:18:03.832Z,2.13
2017-11-20T14:20:36.804Z,2.17
2017-11-20T14:23:05.727Z,2.40
2017-11-20T14:25:34.826Z,2.50
2017-11-20T14:28:24.701Z,3.23
2017-11-20T14:30:59.709Z,2.97
2017-11-20T14:33:29.033Z,3.40
2017-11-20T14:36:00.440Z,3.67
2017-11-20T14:38:29.081Z,3.77
2017-11-20T14:40:57.289Z,3.80
2017-11-20T14:43:25.521Z,4.00
2017-11-20T14:45:54.235Z,4.27
2017-11-20T14:48:23.456Z,4.70
2017-11-20T14:50:55.760Z,4.87
2017-11-20T14:53:40.742Z,5.30
2017-11-20T14:56:09.800Z,5.57
2017-11-20T15:01:52.339Z,5.90
2017-11-20T15:04:21.031Z,5.63
2017-11-20T15:06:49.209Z,6.27
2017-11-20T15:09:17.614Z,6.30
2017-11-20T15:11:49.512Z,6.50
2017-11-20T15:14:17.768Z,5.40
2017-11-20T15:16:45.907Z,5.57
2017-11-20T15:19:14.159Z,5.87
2017-11-20T15:21:42.486Z,6.57
2017-11-20T15:24:13.969Z,6.10
2017-11-20T15:26:42.257Z,7.00
2017-11-20T15:29:10.423Z,7.20
2017-11-20T15:31:39.262Z,8.77
2017-11-20T15:34:08.429Z,8.20
2017-11-20T15:36:37.426Z,10.20
2017-11-20T15:39:05.649Z,10.90
2017-11-20T15:41:37.316Z,9.47
2017-11-20T15:44:12.535Z,9.50
2017-11-20T15:46:40.707Z,10.10
2017-11-20T15:49:08.955Z,10.23
2017-11-20T15:51:38.072Z,10.00
2017-11-20T15:54:06.954Z,10.00
2017-11-20T15:56:35.188Z,10.80
2017-11-20T15:59:03.403Z,10.90
2017-11-20T16:01:32.496Z,10.73
2017-11-20T16:04:03.192Z,10.37
2017-11-20T16:06:32.678Z,10.13
2017-11-20T16:09:01.828Z,9.03
2017-11-20T16:11:35.689Z,9.77
2017-11-20T16:14:04.896Z,8.40
2017-11-20T16:16:34.825Z,8.70
2017-11-20T16:19:03.129Z,9.20
2017-11-20T16:21:31.349Z,8.13
2017-11-20T16:24:03.355Z,8.20
2017-11-20T16:26:32.386Z,8.50
2017-11-20T16:29:07.292Z,9.17
2017-11-20T16:31:48.459Z,8.80
2017-11-20T16:37:04.206Z,9.57
2017-11-20T16:39:36.878Z,8.20
2017-11-20T16:42:05.228Z,8.00
2017-11-20T16:44:33.511Z,8.80
2017-11-20T16:47:01.765Z,9.10
2017-11-20T16:49:29.979Z,9.50
2017-11-20T16:51:58.229Z,8.37
2017-11-20T16:54:31.789Z,8.37
2017-11-20T16:57:11.784Z,9.10
2017-11-20T16:59:40.016Z,8.20
2017-11-20T17:02:32.577Z,8.70
2017-11-20T17:05:01.716Z,10.00
2017-11-20T17:07:30.036Z,9.03
2017-11-20T17:09:58.769Z,9.00
2017-11-20T17:12:27.205Z,8.27
2017-11-20T17:18:05.175Z,7.73
2017-11-20T17:20:33.534Z,7.90
2017-11-20T17:23:02.642Z,7.93
2017-11-20T17:25:36.046Z,8.17
2017-11-20T17:31:02.378Z,8.63
2017-11-20T17:33:30.580Z,9.40
2017-11-20T17:35:58.815Z,8.90
2017-11-20T17:38:27.145Z,9.87
2017-11-20T17:40:55.313Z,8.60
2017-11-20T17:43:23.553Z,9.30
2017-11-20T17:45:52.942Z,9.73
2017-11-20T17:48:24.933Z,10.23
2017-11-20T17:50:54.272Z,10.40
2017-11-20T17:53:22.409Z,10.40
2017-11-20T17:55:51.401Z,10.57
2017-11-20T17:58:19.646Z,10.70
2017-11-20T18:00:47.819Z,10.60
2017-11-20T18:03:16.944Z,11.33
2017-11-20T18:05:45.195Z,10.63
2017-11-20T18:08:13.576Z,10.77
2017-11-20T18:10:47.208Z,11.17
2017-11-20T18:15:58.422Z,10.90
2017-11-20T18:18:28.905Z,11.57
2017-11-20T18:20:57.175Z,11.97
2017-11-20T18:23:27.520Z,11.17
2017-11-20T18:25:56.288Z,11.87
2017-11-20T18:28:34.620Z,11.80
2017-11-20T18:31:02.791Z,11.60
2017-11-20T18:33:31.113Z,12.60
2017-11-20T18:35:59.360Z,12.10
2017-11-20T18:38:31.289Z,11.80
2017-11-20T18:40:59.477Z,11.80
2017-11-20T18:43:27.688Z,12.67
2017-11-20T18:46:16.463Z,12.50
2017-11-20T18:48:46.982Z,14.00
2017-11-20T18:51:16.147Z,12.73
2017-11-20T18:53:44.321Z,12.83
2017-11-20T18:56:15.132Z,13.73
2017-11-20T18:58:43.994Z,13.70
2017-11-20T19:01:23.788Z,12.40
2017-11-20T19:04:04.717Z,14.43
2017-11-20T19:06:54.965Z,13.67
2017-11-20T19:09:23.116Z,14.00
2017-11-20T19:15:01.634Z,14.53
2017-11-20T19:17:29.873Z,15.23
2017-11-20T19:20:12.091Z,13.63
2017-11-20T19:22:40.386Z,14.80
2017-11-20T19:25:08.686Z,14.17
2017-11-20T19:30:38.555Z,13.73
2017-11-20T19:33:06.906Z,15.40
2017-11-20T19:35:35.511Z,15.97
2017-11-20T19:38:03.710Z,15.77
2017-11-20T19:40:31.916Z,14.67
2017-11-20T19:43:00.108Z,14.97
2017-11-20T19:45:28.304Z,14.83
2017-11-20T19:47:56.586Z,14.97
2017-11-20T19:50:26.721Z,15.20
2017-11-20T19:52:54.826Z,15.83
2017-11-20T19:55:23.168Z,15.77
2017-11-20T19:57:53.278Z,15.60
2017-11-20T20:00:21.538Z,15.30
2017-11-20T20:02:50.080Z,15.63
2017-11-20T20:05:18.262Z,14.23
2017-11-20T20:07:46.479Z,14.30
2017-11-20T20:10:14.656Z,14.17
2017-11-20T20:12:44.090Z,15.10
2017-11-20T20:15:31.794Z,14.13
2017-11-20T20:18:01.393Z,14.70
2017-11-20T20:20:29.656Z,15.20
2017-11-20T20:23:02.479Z,13.87
2017-11-20T20:25:30.908Z,14.63
2017-11-20T20:27:59.231Z,14.67
2017-11-20T20:30:29.303Z,14.30
2017-11-20T20:32:57.491Z,14.23
2017-11-20T20:35:25.911Z,13.77
2017-11-20T20:37:55.091Z,12.80
2017-11-20T20:40:23.986Z,13.93
2017-11-20T20:42:53.022Z,14.50
2017-11-20T20:45:21.227Z,14.47
2017-11-20T20:47:49.402Z,13.60
2017-11-20T20:50:19.251Z,14.10
2017-11-20T20:52:47.408Z,16.33
2017-11-20T20:55:15.926Z,16.80
2017-11-20T20:58:08.001Z,16.83
2017-11-20T21:00:37.027Z,16.73
2017-11-20T21:03:05.354Z,16.73
2017-11-20T21:05:33.914Z,15.50
2017-11-20T21:08:05.620Z,14.90
2017-11-20T21:10:39.354Z,15.40
2017-11-20T21:13:08.228Z,16.03
2017-11-20T21:18:54.869Z,15.00
2017-11-20T21:21:23.507Z,14.50
2017-11-20T21:23:51.777Z,16.10
2017-11-20T21:26:20.052Z,15.67
2017-11-20T21:28:48.926Z,15.87
2017-11-20T21:31:17.179Z,14.97
2017-11-20T21:33:45.517Z,16.80
2017-11-20T21:36:13.646Z,16.40
2017-11-20T21:42:15.461Z,15.70
2017-11-20T22:00:56.216Z,16.20
2017-11-20T22:03:26.652Z,17.20
2017-11-20T22:06:15.462Z,16.20
2017-11-20T22:11:56.505Z,17.63
2017-11-20T22:14:26.013Z,16.53
2017-11-20T22:16:58.345Z,17.20
2017-11-20T22:19:27.952Z,18.43
2017-11-20T22:21:56.246Z,17.30
2017-11-20T22:24:28.213Z,18.43
2017-11-20T22:26:59.633Z,18.57
2017-11-20T22:29:37.374Z,17.87
2017-11-20T22:32:10.199Z,17.90
2017-11-20T22:34:42.208Z,17.33
2017-11-20T22:37:10.479Z,16.97
2017-11-20T22:39:38.706Z,18.23
2017-11-20T22:45:28.084Z,16.83
2017-11-20T22:48:09.841Z,17.77
2017-11-20T22:54:09.888Z,16.33
2017-11-20T23:15:16.739Z,18.20
2017-11-20T23:20:56.685Z,18.70
2017-11-20T23:23:26.144Z,18.83
2017-11-20T23:25:55.279Z,17.80
2017-11-20T23:28:23.689Z,17.43
2017-11-20T23:30:51.939Z,17.67
2017-11-20T23:33:24.016Z,17.23
2017-11-20T23:45:04.088Z,16.60
2017-11-20T23:47:35.792Z,18.10
2017-11-20T23:53:56.746Z,15.67
2017-11-20T23:56:27.069Z,16.83
2017-11-20T23:58:55.258Z,16.77
